Roxana, Illinois
Current Conditions -  °F | °C
As of 1:50 PM on Sunday 23 Nov 2014 (Local Time) from KALN Reporting Station
Moderate Rain Moderate Rain  
Wind Chill: 52°   Ceiling: 500
Heat Index: 52°   Visibility: 3mi
Dew Point: 52°   Wind: 14mph
Humidity: 100%   Direction: 130°SE
Pressure: 29.44"   Gusts: NA
Location:  38.85°N, 90.08°W
Report Text: KALN 231950Z 13012KT 3SM RA BR OVC005 11/11 A2944
Loading
Personal Weather Stations






























Interactive Weather Map New forecast layout! Learn more

10-Day Weather Forecast

Advertisements
Track Severe Weather on mobile